createdAt,value
2019-04-10T00:01:01.378Z,98491.09
2019-04-10T00:03:35.460Z,98490.01
2019-04-10T00:06:00.705Z,98490.42
2019-04-10T00:08:30.367Z,98483.23
2019-04-10T00:10:59.216Z,98484.98
2019-04-10T00:13:28.935Z,98489.11
2019-04-10T00:15:57.752Z,98497.40
2019-04-10T00:18:26.582Z,98485.53
2019-04-10T00:20:55.306Z,98491.41
2019-04-10T00:23:24.821Z,98491.50
2019-04-10T00:25:53.668Z,98497.14
2019-04-10T00:28:23.439Z,98499.36
2019-04-10T00:30:52.209Z,98496.91
2019-04-10T00:33:22.880Z,98499.45
2019-04-10T00:35:51.998Z,98498.55
2019-04-10T00:38:21.636Z,98493.69
2019-04-10T00:40:52.089Z,98497.48
2019-04-10T00:43:20.849Z,98500.63
2019-04-10T00:45:49.578Z,98498.55
2019-04-10T00:48:18.358Z,98500.63
2019-04-10T00:50:47.077Z,98495.83
2019-04-10T00:53:16.905Z,98499.66
2019-04-10T00:55:46.112Z,98493.22
2019-04-10T00:58:14.957Z,98492.78
2019-04-10T01:00:43.687Z,98495.84
2019-04-10T01:03:15.565Z,98494.32
2019-04-10T01:05:44.463Z,98499.37
2019-04-10T01:08:13.558Z,98501.44
2019-04-10T01:10:42.419Z,98499.22
2019-04-10T01:13:11.157Z,98499.43
2019-04-10T01:15:39.885Z,98496.84
2019-04-10T01:18:09.452Z,98496.50
2019-04-10T01:20:38.180Z,98495.59
2019-04-10T01:23:07.869Z,98495.94
2019-04-10T01:25:36.844Z,98490.94
2019-04-10T01:28:06.517Z,98494.76
2019-04-10T01:30:35.503Z,98489.08
2019-04-10T01:33:04.296Z,98487.55
2019-04-10T01:35:34.126Z,98487.01
2019-04-10T01:38:05.611Z,98476.43
2019-04-10T01:40:33.440Z,98481.36
2019-04-10T01:43:08.267Z,98486.47
2019-04-10T01:45:33.473Z,98480.00
2019-04-10T01:48:02.292Z,98475.53
2019-04-10T01:50:32.615Z,98480.02
2019-04-10T01:53:01.665Z,98480.33
2019-04-10T01:55:32.494Z,98482.20
2019-04-10T01:58:03.107Z,98480.90
2019-04-10T02:00:33.540Z,98485.27
2019-04-10T02:03:03.428Z,98483.28
2019-04-10T02:05:33.203Z,98481.77
2019-04-10T02:08:08.601Z,98479.66
2019-04-10T02:10:32.486Z,98480.30
2019-04-10T02:13:01.315Z,98483.41
2019-04-10T02:15:30.165Z,98479.99
2019-04-10T02:17:59.211Z,98479.19
2019-04-10T02:20:27.973Z,98482.71
2019-04-10T02:22:56.696Z,98478.59
2019-04-10T02:25:25.486Z,98480.87
2019-04-10T02:27:54.507Z,98481.64
2019-04-10T02:30:24.046Z,98484.89
2019-04-10T02:32:54.551Z,98483.92
2019-04-10T02:35:24.581Z,98482.61
2019-04-10T02:37:56.058Z,98483.45
2019-04-10T02:40:25.472Z,98490.97
2019-04-10T02:42:54.790Z,98492.75
2019-04-10T02:45:24.183Z,98491.67
2019-04-10T02:47:54.920Z,98492.20
2019-04-10T02:50:25.097Z,98496.23
2019-04-10T02:52:55.022Z,98497.64
2019-04-10T02:55:25.024Z,98497.88
2019-04-10T02:57:54.344Z,98505.59
2019-04-10T03:00:25.095Z,98504.52
2019-04-10T03:02:56.602Z,98505.01
2019-04-10T03:05:27.232Z,98500.40
2019-04-10T03:07:55.995Z,98505.16
2019-04-10T03:10:33.765Z,98494.16
2019-04-10T03:12:56.503Z,98499.39
2019-04-10T03:15:25.400Z,98498.22
2019-04-10T03:17:54.522Z,98500.59
2019-04-10T03:20:24.514Z,98501.77
2019-04-10T03:22:53.810Z,98506.56
2019-04-10T03:25:24.562Z,98508.40
2019-04-10T03:27:54.396Z,98502.30
2019-04-10T03:30:23.778Z,98513.88
2019-04-10T03:33:11.001Z,98506.99
2019-04-10T03:35:38.797Z,98512.66
2019-04-10T03:38:07.798Z,98507.48
2019-04-10T03:40:37.578Z,98513.05
2019-04-10T03:43:07.367Z,98517.36
2019-04-10T03:45:36.964Z,98517.03
2019-04-10T03:48:06.436Z,98519.83
2019-04-10T03:50:36.192Z,98522.88
2019-04-10T03:53:05.501Z,98521.83
2019-04-10T03:55:34.912Z,98527.94
2019-04-10T03:58:03.659Z,98533.45
2019-04-10T04:00:32.389Z,98535.88
2019-04-10T04:03:02.501Z,98534.33
2019-04-10T04:05:31.381Z,98532.97
2019-04-10T04:08:01.210Z,98538.41
2019-04-10T04:10:30.778Z,98535.88
2019-04-10T04:13:00.173Z,98533.50
2019-04-10T04:15:30.217Z,98530.70
2019-04-10T04:18:00.255Z,98539.95
2019-04-10T04:20:29.062Z,98532.11
2019-04-10T04:22:57.788Z,98538.11
2019-04-10T04:25:26.554Z,98538.64
2019-04-10T04:27:55.293Z,98535.11
2019-04-10T04:30:26.980Z,98539.37
2019-04-10T04:32:56.076Z,98542.47
2019-04-10T04:35:25.697Z,98538.54
2019-04-10T04:37:54.957Z,98539.22
2019-04-10T04:40:23.892Z,98545.63
2019-04-10T04:42:53.569Z,98553.18
2019-04-10T04:45:23.484Z,98557.55
2019-04-10T04:47:52.443Z,98563.17
2019-04-10T04:50:21.169Z,98560.41
2019-04-10T04:52:49.897Z,98567.83
2019-04-10T04:55:19.705Z,98570.58
2019-04-10T04:57:49.173Z,98574.95
2019-04-10T05:00:17.987Z,98581.73
2019-04-10T05:02:51.488Z,98582.70
2019-04-10T05:05:20.220Z,98589.93
2019-04-10T05:07:56.373Z,98585.86
2019-04-10T05:10:19.499Z,98591.23
2019-04-10T05:12:49.403Z,98594.73
2019-04-10T05:15:18.559Z,98592.53
2019-04-10T05:17:47.461Z,98594.59
2019-04-10T05:20:17.030Z,98598.98
2019-04-10T05:22:45.813Z,98602.19
2019-04-10T05:25:14.681Z,98598.56
2019-04-10T05:27:43.531Z,98605.88
2019-04-10T05:30:12.905Z,98612.19
2019-04-10T05:32:41.870Z,98610.55
2019-04-10T05:35:11.595Z,98606.63
2019-04-10T05:37:40.409Z,98605.20
2019-04-10T05:40:09.776Z,98608.47
2019-04-10T05:42:39.525Z,98607.14
2019-04-10T05:45:09.183Z,98604.34
2019-04-10T05:47:38.792Z,98612.83
2019-04-10T05:50:07.765Z,98609.57
2019-04-10T05:52:37.464Z,98603.85
2019-04-10T05:55:06.851Z,98608.99
2019-04-10T05:57:35.590Z,98604.87
2019-04-10T06:00:08.979Z,98612.83
2019-04-10T06:02:37.729Z,98605.45
2019-04-10T06:05:07.904Z,98607.87
2019-04-10T06:07:37.140Z,98617.27
2019-04-10T06:10:10.211Z,98613.45
2019-04-10T06:12:38.584Z,98611.66
2019-04-10T06:15:07.926Z,98619.66
2019-04-10T06:17:36.747Z,98619.98
2019-04-10T06:20:07.526Z,98624.36
2019-04-10T06:22:36.901Z,98622.08
2019-04-10T06:25:10.632Z,98629.36
2019-04-10T06:27:38.857Z,98630.17
2019-04-10T06:30:09.989Z,98625.06
2019-04-10T06:32:39.771Z,98629.30
2019-04-10T06:35:09.355Z,98626.38
2019-04-10T06:37:38.131Z,98630.64
2019-04-10T06:40:15.289Z,98635.44
2019-04-10T06:42:45.353Z,98632.59
2019-04-10T06:45:09.379Z,98635.11
2019-04-10T06:47:38.484Z,98638.27
2019-04-10T06:50:08.118Z,98636.95
2019-04-10T06:52:36.847Z,98635.57
2019-04-10T06:55:07.135Z,98637.34
2019-04-10T06:57:47.641Z,98639.84
2019-04-10T07:00:13.691Z,98638.10
2019-04-10T07:02:42.137Z,98646.34
2019-04-10T07:05:12.404Z,98644.70
2019-04-10T07:07:50.913Z,98638.24
2019-04-10T07:10:22.536Z,98637.70
2019-04-10T07:12:43.769Z,98637.27
2019-04-10T07:15:12.756Z,98650.26
2019-04-10T07:17:41.974Z,98646.07
2019-04-10T07:20:15.013Z,98651.09
2019-04-10T07:22:46.648Z,98649.03
2019-04-10T07:25:15.645Z,98653.29
2019-04-10T07:27:45.811Z,98653.44
2019-04-10T07:30:15.363Z,98648.46
2019-04-10T07:32:48.676Z,98656.44
2019-04-10T07:35:19.575Z,98652.71
2019-04-10T07:37:46.555Z,98653.57
2019-04-10T07:40:16.683Z,98655.11
2019-04-10T07:42:46.281Z,98655.82
2019-04-10T07:45:15.516Z,98662.33
2019-04-10T07:47:44.370Z,98664.55
2019-04-10T07:50:14.137Z,98665.45
2019-04-10T07:52:43.693Z,98670.62
2019-04-10T07:55:12.885Z,98673.00
2019-04-10T07:57:44.682Z,98666.80
2019-04-10T08:00:14.264Z,98666.67
2019-04-10T08:02:43.153Z,98669.78
2019-04-10T08:05:12.262Z,98668.16
2019-04-10T08:07:41.086Z,98664.20
2019-04-10T08:10:11.977Z,98666.41
2019-04-10T08:12:47.576Z,98668.34
2019-04-10T08:15:11.512Z,98670.39
2019-04-10T08:17:40.995Z,98669.17
2019-04-10T08:20:10.426Z,98670.36
2019-04-10T08:22:39.426Z,98671.20
2019-04-10T08:25:09.009Z,98669.30
2019-04-10T08:27:38.462Z,98670.38
2019-04-10T08:30:10.945Z,98668.98
2019-04-10T08:32:50.916Z,98669.59
2019-04-10T08:35:11.110Z,98663.30
2019-04-10T08:37:41.067Z,98671.00
2019-04-10T08:40:11.476Z,98677.79
2019-04-10T08:42:43.282Z,98679.82
2019-04-10T08:45:11.392Z,98680.91
2019-04-10T08:47:40.312Z,98683.47
2019-04-10T08:50:09.752Z,98685.42
2019-04-10T08:52:39.097Z,98684.18
2019-04-10T08:55:10.134Z,98687.78
2019-04-10T08:57:38.907Z,98685.08
2019-04-10T09:00:10.171Z,98681.00
2019-04-10T09:02:39.094Z,98683.53
2019-04-10T09:05:09.190Z,98688.55
2019-04-10T09:07:38.280Z,98687.51
2019-04-10T09:10:10.244Z,98692.00
2019-04-10T09:12:39.066Z,98687.72
2019-04-10T09:15:07.925Z,98686.95
2019-04-10T09:17:37.671Z,98695.06
2019-04-10T09:20:07.328Z,98686.88
2019-04-10T09:22:49.802Z,98687.09
2019-04-10T09:25:08.896Z,98688.00
2019-04-10T09:27:37.966Z,98688.00
2019-04-10T09:30:08.847Z,98688.60
2019-04-10T09:32:38.890Z,98694.45
2019-04-10T09:35:08.815Z,98690.63
2019-04-10T09:37:38.081Z,98690.44
2019-04-10T09:40:08.113Z,98690.13
2019-04-10T09:42:36.862Z,98690.13
2019-04-10T09:45:06.194Z,98694.26
2019-04-10T09:47:35.001Z,98694.35
2019-04-10T09:50:05.588Z,98694.23
2019-04-10T09:52:36.020Z,98692.09
2019-04-10T09:55:05.914Z,98689.73
2019-04-10T09:57:34.708Z,98694.36
2019-04-10T10:00:05.211Z,98699.25
2019-04-10T10:02:34.180Z,98698.48
2019-04-10T10:05:05.023Z,98696.67
2019-04-10T10:07:34.866Z,98691.27
2019-04-10T10:10:05.099Z,98688.75
2019-04-10T10:12:34.356Z,98689.32
2019-04-10T10:15:03.829Z,98685.07
2019-04-10T10:17:32.875Z,98683.92
2019-04-10T10:20:01.853Z,98681.94
2019-04-10T10:22:31.713Z,98684.88
2019-04-10T10:25:00.773Z,98695.39
2019-04-10T10:27:30.137Z,98691.73
2019-04-10T10:29:59.940Z,98693.06
2019-04-10T10:32:28.980Z,98691.68
2019-04-10T10:34:58.769Z,98688.82
2019-04-10T10:37:27.671Z,98689.34
2019-04-10T10:39:57.195Z,98686.44
2019-04-10T10:42:25.925Z,98684.46
2019-04-10T10:44:54.660Z,98683.90
2019-04-10T10:47:24.311Z,98689.33
2019-04-10T10:49:53.031Z,98688.23
2019-04-10T10:52:21.777Z,98684.91
2019-04-10T10:54:51.641Z,98687.72
2019-04-10T10:57:20.363Z,98684.84
2019-04-10T10:59:49.437Z,98693.00
2019-04-10T11:02:19.219Z,98692.56
2019-04-10T11:04:48.104Z,98690.20
2019-04-10T11:07:16.826Z,98695.58
2019-04-10T11:09:45.584Z,98691.45
2019-04-10T11:12:14.710Z,98698.11
2019-04-10T11:14:43.710Z,98701.59
2019-04-10T11:17:13.435Z,98697.13
2019-04-10T11:19:43.414Z,98702.89
2019-04-10T11:22:14.083Z,98696.02
2019-04-10T11:24:44.518Z,98698.75
2019-04-10T11:27:14.360Z,98700.86
2019-04-10T11:29:45.274Z,98689.91
2019-04-10T11:32:14.399Z,98694.32
2019-04-10T11:34:43.491Z,98692.52
2019-04-10T11:37:23.376Z,98692.67
2019-04-10T11:42:14.571Z,98687.59
2019-04-10T11:44:45.616Z,98687.69
2019-04-10T11:47:14.906Z,98683.76
2019-04-10T11:49:45.182Z,98683.72
2019-04-10T11:52:15.918Z,98682.13
2019-04-10T11:54:46.413Z,98687.91
2019-04-10T11:57:19.459Z,98678.48
2019-04-10T11:59:50.963Z,98677.93
2019-04-10T12:12:21.733Z,98680.14
2019-04-10T12:14:52.060Z,98674.23
2019-04-10T12:17:20.832Z,98674.34
2019-04-10T12:19:49.557Z,98673.78
2019-04-10T12:22:19.160Z,98677.77
2019-04-10T12:24:49.699Z,98670.44
2019-04-10T12:27:18.459Z,98680.14
2019-04-10T12:29:47.232Z,98673.46
2019-04-10T12:32:16.655Z,98678.05
2019-04-10T12:34:46.506Z,98680.75
2019-04-10T12:37:15.458Z,98676.94
2019-04-10T12:39:45.344Z,98679.24
2019-04-10T12:42:14.230Z,98675.01
2019-04-10T12:44:43.007Z,98675.44
2019-04-10T12:47:11.726Z,98674.23
2019-04-10T12:49:41.442Z,98675.48
2019-04-10T12:52:14.283Z,98673.76
2019-04-10T12:54:43.082Z,98663.50
2019-04-10T12:57:12.717Z,98668.25
2019-04-10T12:59:41.785Z,98670.08
2019-04-10T13:02:11.932Z,98671.06
2019-04-10T13:04:41.209Z,98664.38
2019-04-10T13:07:10.018Z,98666.70
2019-04-10T13:09:38.686Z,98660.58
2019-04-10T13:12:07.411Z,98655.53
2019-04-10T13:14:36.863Z,98658.14
2019-04-10T13:17:06.775Z,98656.92
2019-04-10T13:19:37.477Z,98657.30
2019-04-10T13:22:07.390Z,98657.06
2019-04-10T13:24:36.193Z,98659.63
2019-04-10T13:27:04.874Z,98657.38
2019-04-10T13:29:33.600Z,98658.02
2019-04-10T13:32:03.410Z,98654.77
2019-04-10T13:34:33.281Z,98654.80
2019-04-10T13:37:02.323Z,98658.83
2019-04-10T13:39:31.043Z,98649.98
2019-04-10T13:42:00.913Z,98653.34
2019-04-10T13:44:30.805Z,98653.56
2019-04-10T13:46:59.545Z,98647.08
2019-04-10T13:49:28.412Z,98651.66
2019-04-10T13:51:57.191Z,98650.52
2019-04-10T13:54:26.423Z,98653.17
2019-04-10T13:56:55.265Z,98651.50
2019-04-10T13:59:24.832Z,98655.06
2019-04-10T14:01:53.576Z,98649.40
2019-04-10T14:04:22.942Z,98656.19
2019-04-10T14:06:51.862Z,98654.11
2019-04-10T14:09:34.398Z,98661.49
2019-04-10T14:11:51.278Z,98663.78
2019-04-10T14:14:20.385Z,98662.18
2019-04-10T14:16:49.088Z,98653.47
2019-04-10T14:19:17.809Z,98657.63
2019-04-10T14:21:46.695Z,98662.41
2019-04-10T14:24:15.827Z,98660.88
2019-04-10T14:26:49.512Z,98659.45
2019-04-10T14:29:16.758Z,98652.09
2019-04-10T14:31:47.062Z,98650.95
2019-04-10T14:34:18.426Z,98657.59
2019-04-10T14:36:46.468Z,98648.84
2019-04-10T14:39:19.637Z,98649.18
2019-04-10T14:41:46.381Z,98654.09
2019-04-10T14:44:15.304Z,98648.77
2019-04-10T14:46:44.292Z,98650.13
2019-04-10T14:49:13.215Z,98651.27
2019-04-10T14:51:44.320Z,98653.57
2019-04-10T14:54:15.562Z,98647.89
2019-04-10T14:56:44.523Z,98654.77
2019-04-10T14:59:14.182Z,98652.66
2019-04-10T15:01:44.139Z,98654.63
2019-04-10T15:04:13.012Z,98646.50
2019-04-10T15:06:41.860Z,98652.73
2019-04-10T15:09:24.940Z,98655.13
2019-04-10T15:11:49.094Z,98654.48
2019-04-10T15:14:17.920Z,98651.80
2019-04-10T15:16:53.420Z,98647.86
2019-04-10T15:19:18.414Z,98646.59
2019-04-10T15:21:47.298Z,98655.75
2019-04-10T15:24:16.009Z,98651.81
2019-04-10T15:26:44.814Z,98655.01
2019-04-10T15:29:14.243Z,98659.25
2019-04-10T15:31:44.021Z,98664.12
2019-04-10T15:34:13.967Z,98667.56
2019-04-10T15:36:44.739Z,98666.78
2019-04-10T15:39:13.364Z,98663.67
2019-04-10T15:41:43.398Z,98671.74
2019-04-10T15:44:12.207Z,98679.88
2019-04-10T15:46:41.475Z,98675.48
2019-04-10T15:49:11.092Z,98675.50
2019-04-10T15:51:39.953Z,98684.55
2019-04-10T15:54:09.741Z,98681.45
2019-04-10T15:56:40.196Z,98685.56
2019-04-10T15:59:10.057Z,98683.26
2019-04-10T16:01:39.308Z,98686.17
2019-04-10T16:04:09.736Z,98678.00
2019-04-10T16:06:39.654Z,98684.14
2019-04-10T16:09:09.247Z,98681.18
2019-04-10T16:11:39.770Z,98688.88
2019-04-10T16:14:20.061Z,98687.78
2019-04-10T16:16:54.915Z,98684.08
2019-04-10T16:19:28.731Z,98686.71
2019-04-10T16:21:58.278Z,98691.54
2019-04-10T16:24:28.950Z,98692.01
2019-04-10T16:26:57.955Z,98696.56
2019-04-10T16:29:26.808Z,98694.35
2019-04-10T16:31:56.588Z,98692.83
2019-04-10T16:34:26.798Z,98696.79
2019-04-10T16:36:55.700Z,98696.05
2019-04-10T16:39:25.680Z,98694.59
2019-04-10T16:41:54.603Z,98690.34
2019-04-10T16:44:23.299Z,98694.77
2019-04-10T16:46:53.108Z,98694.34
2019-04-10T16:49:22.493Z,98693.95
2019-04-10T16:51:52.372Z,98690.06
2019-04-10T16:54:21.601Z,98688.48
2019-04-10T16:56:50.642Z,98688.36
2019-04-10T16:59:19.367Z,98700.40
2019-04-10T17:01:48.134Z,98697.47
2019-04-10T17:04:16.862Z,98702.83
2019-04-10T17:06:46.385Z,98707.33
2019-04-10T17:09:16.927Z,98715.63
2019-04-10T17:11:45.649Z,98714.86
2019-04-10T17:14:15.174Z,98719.69
2019-04-10T17:16:44.118Z,98722.59
2019-04-10T17:19:13.854Z,98717.54
2019-04-10T17:21:42.665Z,98718.55
2019-04-10T17:24:11.521Z,98723.95
2019-04-10T17:26:41.283Z,98732.46
2019-04-10T17:29:10.036Z,98734.12
2019-04-10T17:31:40.417Z,98738.57
2019-04-10T17:34:10.351Z,98737.40
2019-04-10T17:36:39.151Z,98741.38
2019-04-10T17:39:11.220Z,98738.75
2019-04-10T17:41:40.081Z,98738.52
2019-04-10T17:44:09.633Z,98741.57
2019-04-10T17:46:39.513Z,98737.09
2019-04-10T17:49:09.121Z,98737.66
2019-04-10T17:51:38.751Z,98736.69
2019-04-10T17:54:07.630Z,98742.94
2019-04-10T17:56:36.360Z,98740.45
2019-04-10T17:59:05.837Z,98744.93
2019-04-10T18:01:34.848Z,98741.30
2019-04-10T18:04:03.865Z,98744.18
2019-04-10T18:06:33.306Z,98749.43
2019-04-10T18:09:02.226Z,98753.34
2019-04-10T18:11:32.070Z,98757.63
2019-04-10T18:14:00.960Z,98751.94
2019-04-10T18:16:29.875Z,98760.05
2019-04-10T18:19:00.012Z,98766.92
2019-04-10T18:21:28.906Z,98774.78
2019-04-10T18:23:57.907Z,98778.38
2019-04-10T18:26:27.730Z,98781.53
2019-04-10T18:28:56.581Z,98780.27
2019-04-10T18:31:26.750Z,98778.01
2019-04-10T18:33:55.881Z,98784.36
2019-04-10T18:36:24.595Z,98784.10
2019-04-10T18:38:54.234Z,98785.50
2019-04-10T18:41:24.139Z,98786.41
2019-04-10T18:43:53.027Z,98791.10
2019-04-10T18:46:22.423Z,98787.40
2019-04-10T18:48:51.630Z,98788.48
2019-04-10T18:51:21.435Z,98796.92
2019-04-10T18:53:51.208Z,98796.02
2019-04-10T18:56:20.790Z,98802.94
2019-04-10T18:59:06.441Z,98796.78
2019-04-10T19:01:43.197Z,98799.98
2019-04-10T19:04:16.654Z,98805.55
2019-04-10T19:06:51.110Z,98801.45
2019-04-10T19:09:25.108Z,98807.00
2019-04-10T19:11:51.065Z,98812.67
2019-04-10T19:14:20.747Z,98815.95
2019-04-10T19:16:49.934Z,98821.53
2019-04-10T19:19:18.650Z,98821.61
2019-04-10T19:21:48.438Z,98817.41
2019-04-10T19:24:19.624Z,98816.58
2019-04-10T19:26:48.493Z,98819.17
2019-04-10T19:29:17.224Z,98821.02
2019-04-10T19:31:47.799Z,98824.41
2019-04-10T19:34:17.003Z,98823.62
2019-04-10T19:36:45.978Z,98825.39
2019-04-10T19:39:16.009Z,98825.66
2019-04-10T19:41:44.945Z,98829.56
2019-04-10T19:44:14.854Z,98826.58
2019-04-10T19:46:43.975Z,98820.86
2019-04-10T19:49:12.723Z,98826.22
2019-04-10T19:51:42.564Z,98820.86
2019-04-10T19:54:11.660Z,98827.27
2019-04-10T19:56:40.537Z,98825.02
2019-04-10T19:59:10.314Z,98823.17
2019-04-10T20:01:39.441Z,98821.98
2019-04-10T20:04:08.335Z,98813.87
2019-04-10T20:06:37.073Z,98811.25
2019-04-10T20:09:08.423Z,98811.48
2019-04-10T20:11:42.117Z,98810.95
2019-04-10T20:14:08.407Z,98811.39
2019-04-10T20:16:37.550Z,98811.55
2019-04-10T20:19:07.331Z,98811.66
2019-04-10T20:21:36.436Z,98815.20
2019-04-10T20:24:05.380Z,98816.29
2019-04-10T20:26:34.924Z,98818.09
2019-04-10T20:29:04.577Z,98818.77
2019-04-10T20:31:35.303Z,98817.16
2019-04-10T20:34:05.431Z,98817.95
2019-04-10T20:36:35.192Z,98811.34
2019-04-10T20:39:06.176Z,98810.91
2019-04-10T20:41:47.793Z,98811.97
2019-04-10T20:44:07.222Z,98811.69
2019-04-10T20:46:36.230Z,98817.52
2019-04-10T20:49:07.730Z,98805.95
2019-04-10T20:51:35.596Z,98801.30
2019-04-10T20:54:04.452Z,98804.70
2019-04-10T20:56:36.908Z,98805.23
2019-04-10T20:59:05.834Z,98810.38
2019-04-10T21:01:35.437Z,98806.88
2019-04-10T21:04:05.051Z,98810.71
2019-04-10T21:06:34.060Z,98812.13
2019-04-10T21:09:05.248Z,98801.53
2019-04-10T21:11:34.069Z,98805.23
2019-04-10T21:14:03.075Z,98811.05
2019-04-10T21:16:33.632Z,98809.64
2019-04-10T21:19:02.436Z,98816.64
2019-04-10T21:21:31.122Z,98812.27
2019-04-10T21:24:00.679Z,98818.96
2019-04-10T21:26:30.409Z,98821.28
2019-04-10T21:29:00.253Z,98821.19
2019-04-10T21:31:43.057Z,98820.34
2019-04-10T21:34:13.934Z,98817.93
2019-04-10T21:36:43.457Z,98826.14
2019-04-10T21:39:12.665Z,98821.59
2019-04-10T21:41:42.393Z,98820.48
2019-04-10T21:44:11.458Z,98821.77
2019-04-10T21:46:41.690Z,98821.25
2019-04-10T21:49:11.401Z,98824.42
2019-04-10T21:51:40.791Z,98820.48
2019-04-10T21:54:10.398Z,98825.06
2019-04-10T21:56:39.193Z,98820.14
2019-04-10T21:59:08.974Z,98821.80
2019-04-10T22:01:38.758Z,98822.03
2019-04-10T22:04:08.191Z,98826.61
2019-04-10T22:06:39.796Z,98824.28
2019-04-10T22:09:26.419Z,98816.31
2019-04-10T22:11:57.419Z,98814.13
2019-04-10T22:14:26.300Z,98813.59
2019-04-10T22:16:55.253Z,98822.84
2019-04-10T22:19:23.981Z,98819.97
2019-04-10T22:21:53.693Z,98820.98
2019-04-10T22:24:23.517Z,98818.63
2019-04-10T22:26:52.324Z,98822.06
2019-04-10T22:29:21.768Z,98813.99
2019-04-10T22:31:51.302Z,98820.65
2019-04-10T22:34:21.253Z,98818.03
2019-04-10T22:36:50.372Z,98818.83
2019-04-10T22:39:19.365Z,98824.08
2019-04-10T22:41:48.373Z,98822.08
2019-04-10T22:44:17.552Z,98829.95
2019-04-10T22:46:46.794Z,98828.95
2019-04-10T22:49:15.654Z,98831.98
2019-04-10T22:51:44.413Z,98831.88
2019-04-10T22:54:14.578Z,98826.20
2019-04-10T22:56:43.490Z,98829.27
2019-04-10T22:59:13.593Z,98826.44
2019-04-10T23:01:43.243Z,98830.03
2019-04-10T23:04:12.283Z,98824.25
2019-04-10T23:06:41.638Z,98827.33
2019-04-10T23:09:12.135Z,98823.39
2019-04-10T23:11:43.558Z,98820.77
2019-04-10T23:14:12.240Z,98824.94
2019-04-10T23:16:41.337Z,98820.14
2019-04-10T23:19:10.050Z,98822.23
2019-04-10T23:21:38.779Z,98825.70
2019-04-10T23:24:09.473Z,98827.88
2019-04-10T23:26:39.453Z,98824.63
2019-04-10T23:29:08.452Z,98820.75
2019-04-10T23:31:37.414Z,98819.06
2019-04-10T23:34:06.353Z,98812.80
2019-04-10T23:36:35.137Z,98815.32
2019-04-10T23:39:06.094Z,98808.28
2019-04-10T23:41:35.804Z,98808.19
2019-04-10T23:44:04.633Z,98795.52
2019-04-10T23:46:34.618Z,98797.17
2019-04-10T23:49:03.978Z,98790.81
2019-04-10T23:51:32.798Z,98792.36
2019-04-10T23:54:02.732Z,98788.67
2019-04-10T23:56:31.595Z,98791.97
2019-04-10T23:59:00.341Z,98784.70
